createdAt,value
2023-02-08T00:00:54.002Z,97038.28
2023-02-08T00:03:20.674Z,97032.44
2023-02-08T00:05:47.254Z,97035.31
2023-02-08T00:08:13.817Z,97032.88
2023-02-08T00:10:40.686Z,97028.69
2023-02-08T00:13:07.398Z,97026.19
2023-02-08T00:15:33.977Z,97027.13
2023-02-08T00:18:00.719Z,97027.16
2023-02-08T00:20:27.282Z,97028.28
2023-02-08T00:22:53.858Z,97025.78
2023-02-08T00:25:20.800Z,97025.53
2023-02-08T00:27:47.442Z,97021.47
2023-02-08T00:30:14.120Z,97021.88
2023-02-08T00:32:40.673Z,97022.09
2023-02-08T00:35:07.595Z,97011.09
2023-02-08T00:37:34.210Z,97008.88
2023-02-08T00:40:02.513Z,96998.88
2023-02-08T00:42:30.119Z,97000.84
2023-02-08T00:44:56.858Z,97004.03
2023-02-08T00:47:24.199Z,97005.91
2023-02-08T00:49:51.294Z,97002.56
2023-02-08T00:52:18.463Z,97011.00
2023-02-08T00:54:44.975Z,97009.84
2023-02-08T00:57:11.497Z,97003.25
2023-02-08T00:59:38.017Z,96999.69
2023-02-08T01:02:05.050Z,97005.03
2023-02-08T01:04:31.772Z,97001.53
2023-02-08T01:06:58.469Z,97002.63
2023-02-08T01:09:25.192Z,96999.13
2023-02-08T01:11:51.784Z,96999.25
2023-02-08T01:14:18.468Z,97001.59
2023-02-08T01:16:44.999Z,96998.31
2023-02-08T01:19:13.335Z,96997.34
2023-02-08T01:21:41.598Z,97002.56
2023-02-08T01:24:08.694Z,97006.41
2023-02-08T01:26:35.438Z,96998.16
2023-02-08T01:29:05.356Z,96998.50
2023-02-08T01:31:35.644Z,96994.69
2023-02-08T01:34:03.007Z,96993.66
2023-02-08T01:36:30.916Z,96994.44
2023-02-08T01:38:57.860Z,96989.66
2023-02-08T01:41:27.928Z,96989.22
2023-02-08T01:44:11.684Z,96988.59
2023-02-08T01:46:39.491Z,96991.41
2023-02-08T01:49:12.845Z,96986.28
2023-02-08T01:51:45.400Z,96994.38
2023-02-08T01:54:14.604Z,96982.16
2023-02-08T01:56:45.743Z,96981.81
2023-02-08T01:59:17.832Z,96976.44
2023-02-08T02:01:46.242Z,96989.97
2023-02-08T02:04:13.525Z,96978.66
2023-02-08T02:06:45.534Z,96976.25
2023-02-08T02:09:18.288Z,96978.81
2023-02-08T02:11:44.919Z,96985.44
2023-02-08T02:14:12.202Z,96982.44
2023-02-08T02:16:38.816Z,96979.94
2023-02-08T02:19:13.644Z,96974.50
2023-02-08T02:21:51.007Z,96983.19
2023-02-08T02:24:26.529Z,96987.66
2023-02-08T02:27:28.129Z,96985.09
2023-02-08T02:30:15.476Z,96975.47
2023-02-08T02:32:54.423Z,96974.69
2023-02-08T02:35:39.321Z,96976.06
2023-02-08T02:38:32.420Z,96977.00
2023-02-08T02:42:03.040Z,96981.09
2023-02-08T02:44:41.933Z,96973.84
2023-02-08T02:47:11.480Z,96980.91
2023-02-08T02:50:18.427Z,96976.41
2023-02-08T02:53:03.080Z,96978.06
2023-02-08T02:55:36.041Z,96986.22
2023-02-08T02:58:05.263Z,96982.66
2023-02-08T03:00:32.956Z,96986.53
2023-02-08T03:02:59.487Z,96977.28
2023-02-08T03:05:27.904Z,96986.63
2023-02-08T03:08:21.119Z,96983.81
2023-02-08T03:11:15.676Z,96986.94
2023-02-08T03:14:04.862Z,96994.75
2023-02-08T03:17:11.316Z,96984.03
2023-02-08T03:19:59.636Z,96980.97
2023-02-08T03:22:44.136Z,96977.34
2023-02-08T03:25:37.431Z,96975.53
2023-02-08T03:28:22.530Z,96977.06
2023-02-08T03:31:05.417Z,96979.56
2023-02-08T03:33:46.456Z,96973.13
2023-02-08T03:36:21.890Z,96965.69
2023-02-08T03:38:51.069Z,96967.56
2023-02-08T03:41:24.538Z,96967.88
2023-02-08T03:43:58.459Z,96968.59
2023-02-08T03:46:30.789Z,96965.72
2023-02-08T03:49:04.463Z,96962.69
2023-02-08T03:51:32.855Z,96966.91
2023-02-08T03:54:02.674Z,96954.06
2023-02-08T03:56:38.834Z,96953.19
2023-02-08T03:59:11.870Z,96955.66
2023-02-08T04:01:44.949Z,96957.75
2023-02-08T04:04:15.837Z,96962.59
2023-02-08T04:06:42.375Z,96964.22
2023-02-08T04:09:09.157Z,96974.28
2023-02-08T04:11:35.713Z,96961.69
2023-02-08T04:14:02.236Z,96966.16
2023-02-08T04:16:28.779Z,96955.56
2023-02-08T04:18:55.350Z,96953.84
2023-02-08T04:21:21.958Z,96945.31
2023-02-08T04:23:48.526Z,96953.97
2023-02-08T04:26:15.031Z,96948.91
2023-02-08T04:28:41.626Z,96944.53
2023-02-08T04:31:08.191Z,96948.41
2023-02-08T04:33:34.811Z,96939.25
2023-02-08T04:36:01.586Z,96949.63
2023-02-08T04:38:28.192Z,96950.66
2023-02-08T04:40:54.721Z,96947.78
2023-02-08T04:43:21.279Z,96951.63
2023-02-08T04:45:50.447Z,96944.06
2023-02-08T04:48:18.033Z,96946.78
2023-02-08T04:50:44.574Z,96942.66
2023-02-08T04:53:11.409Z,96943.25
2023-02-08T04:55:38.001Z,96937.28
2023-02-08T04:58:04.925Z,96935.50
2023-02-08T05:00:31.797Z,96932.00
2023-02-08T05:02:58.775Z,96930.72
2023-02-08T05:05:27.125Z,96929.38
2023-02-08T05:07:54.060Z,96924.97
2023-02-08T05:10:20.595Z,96925.25
2023-02-08T05:12:47.172Z,96927.13
2023-02-08T05:15:13.733Z,96921.25
2023-02-08T05:17:40.265Z,96929.44
2023-02-08T05:20:08.064Z,96922.19
2023-02-08T05:22:34.652Z,96923.00
2023-02-08T05:25:01.547Z,96928.50
2023-02-08T05:27:28.096Z,96925.91
2023-02-08T05:29:54.693Z,96925.91
2023-02-08T05:32:21.199Z,96919.63
2023-02-08T05:34:47.874Z,96927.44
2023-02-08T05:37:14.407Z,96924.03
2023-02-08T05:39:41.027Z,96931.66
2023-02-08T05:42:07.617Z,96923.38
2023-02-08T05:44:34.152Z,96927.53
2023-02-08T05:47:00.771Z,96925.81
2023-02-08T05:49:27.478Z,96923.94
2023-02-08T05:51:54.019Z,96924.47
2023-02-08T05:54:20.549Z,96928.63
2023-02-08T05:56:47.120Z,96928.66
2023-02-08T05:59:13.639Z,96932.69
2023-02-08T06:01:40.196Z,96931.16
2023-02-08T06:04:06.789Z,96936.50
2023-02-08T06:06:33.412Z,96936.38
2023-02-08T06:08:59.936Z,96940.47
2023-02-08T06:11:27.534Z,96933.19
2023-02-08T06:13:54.112Z,96932.91
2023-02-08T06:16:20.691Z,96934.44
2023-02-08T06:18:47.300Z,96929.72
2023-02-08T06:21:13.935Z,96930.72
2023-02-08T06:23:41.134Z,96927.22
2023-02-08T06:26:07.726Z,96927.03
2023-02-08T06:28:34.259Z,96934.00
2023-02-08T06:31:00.826Z,96926.41
2023-02-08T06:33:27.577Z,96938.47
2023-02-08T06:35:54.166Z,96932.75
2023-02-08T06:38:20.691Z,96937.09
2023-02-08T06:40:48.398Z,96934.13
2023-02-08T06:43:15.491Z,96940.78
2023-02-08T06:45:45.384Z,96942.06
2023-02-08T06:48:12.435Z,96943.97
2023-02-08T06:50:39.229Z,96947.31
2023-02-08T06:53:05.970Z,96948.03
2023-02-08T06:55:32.769Z,96950.13
2023-02-08T06:57:59.333Z,96950.22
2023-02-08T07:00:25.865Z,96948.56
2023-02-08T07:02:52.623Z,96951.38
2023-02-08T07:05:19.216Z,96953.56
2023-02-08T07:07:48.378Z,96950.81
2023-02-08T07:10:15.813Z,96951.63
2023-02-08T07:12:42.372Z,96955.81
2023-02-08T07:15:10.052Z,96953.31
2023-02-08T07:17:36.621Z,96957.25
2023-02-08T07:20:03.290Z,96954.16
2023-02-08T07:22:29.978Z,96957.53
2023-02-08T07:24:56.530Z,96963.38
2023-02-08T07:27:25.035Z,96963.66
2023-02-08T07:29:52.542Z,96959.81
2023-02-08T07:32:19.068Z,96962.53
2023-02-08T07:34:46.456Z,96961.63
2023-02-08T07:37:13.052Z,96955.00
2023-02-08T07:39:39.808Z,96964.16
2023-02-08T07:42:08.396Z,96954.66
2023-02-08T07:44:41.715Z,96957.94
2023-02-08T07:47:08.589Z,96961.69
2023-02-08T07:49:35.213Z,96949.59
2023-02-08T07:52:01.789Z,96961.31
2023-02-08T07:54:29.418Z,96956.28
2023-02-08T07:56:56.706Z,96957.56
2023-02-08T07:59:23.508Z,96955.25
2023-02-08T08:01:50.074Z,96948.69
2023-02-08T08:04:16.740Z,96953.81
2023-02-08T08:06:43.335Z,96963.63
2023-02-08T08:09:09.959Z,96954.09
2023-02-08T08:11:36.525Z,96952.78
2023-02-08T08:14:03.170Z,96950.78
2023-02-08T08:16:29.751Z,96953.03
2023-02-08T08:18:56.354Z,96952.84
2023-02-08T08:21:22.890Z,96953.84
2023-02-08T08:23:49.434Z,96955.69
2023-02-08T08:26:19.564Z,96955.44
2023-02-08T08:28:46.719Z,96953.03
2023-02-08T08:31:18.840Z,96956.47
2023-02-08T08:33:45.869Z,96955.22
2023-02-08T08:36:12.721Z,96958.00
2023-02-08T08:38:40.814Z,96961.06
2023-02-08T08:41:16.986Z,96955.91
2023-02-08T08:43:44.059Z,96954.56
2023-02-08T08:46:10.886Z,96954.63
2023-02-08T08:48:38.819Z,96954.53
2023-02-08T08:51:06.154Z,96953.56
2023-02-08T08:53:33.271Z,96950.88
2023-02-08T08:55:59.852Z,96946.25
2023-02-08T08:58:26.357Z,96942.59
2023-02-08T09:00:53.941Z,96935.00
2023-02-08T09:03:20.525Z,96948.78
2023-02-08T09:05:47.164Z,96940.00
2023-02-08T09:08:13.814Z,96941.75
2023-02-08T09:10:41.065Z,96932.00
2023-02-08T09:13:08.321Z,96929.34
2023-02-08T09:15:39.542Z,96931.88
2023-02-08T09:18:06.480Z,96933.13
2023-02-08T09:20:33.023Z,96928.69
2023-02-08T09:22:59.766Z,96936.00
2023-02-08T09:25:27.136Z,96936.28
2023-02-08T09:27:53.829Z,96930.91
2023-02-08T09:30:20.693Z,96937.84
2023-02-08T09:32:47.315Z,96941.00
2023-02-08T09:35:15.319Z,96944.38
2023-02-08T09:37:41.976Z,96937.16
2023-02-08T09:40:21.863Z,96945.66
2023-02-08T09:42:59.535Z,96944.69
2023-02-08T09:45:51.239Z,96946.72
2023-02-08T09:48:33.956Z,96948.44
2023-02-08T09:51:40.351Z,96943.88
2023-02-08T09:54:33.293Z,96954.78
2023-02-08T09:57:04.197Z,96956.88
2023-02-08T09:59:33.787Z,96954.06
2023-02-08T10:02:25.202Z,96961.44
2023-02-08T10:05:24.217Z,96951.59
2023-02-08T10:07:50.811Z,96941.50
2023-02-08T10:10:33.397Z,96948.53
2023-02-08T10:13:41.006Z,96946.22
2023-02-08T10:16:16.547Z,96943.38
2023-02-08T10:19:14.670Z,96947.38
2023-02-08T10:22:04.449Z,96945.53
2023-02-08T10:25:06.494Z,96942.00
2023-02-08T10:27:47.320Z,96933.88
2023-02-08T10:30:45.163Z,96925.75
2023-02-08T10:33:22.445Z,96938.03
2023-02-08T10:35:50.636Z,96929.44
2023-02-08T10:38:20.239Z,96928.25
2023-02-08T10:41:00.482Z,96930.66
2023-02-08T10:43:34.049Z,96913.75
2023-02-08T10:46:32.339Z,96911.91
2023-02-08T10:49:08.233Z,96911.75
2023-02-08T10:51:35.218Z,96911.16
2023-02-08T10:54:01.774Z,96898.03
2023-02-08T10:56:43.751Z,96895.25
2023-02-08T10:59:38.454Z,96894.72
2023-02-08T11:02:20.499Z,96894.53
2023-02-08T11:04:59.677Z,96890.34
2023-02-08T11:07:26.357Z,96881.28
2023-02-08T11:09:52.960Z,96880.16
2023-02-08T11:12:22.663Z,96862.06
2023-02-08T11:14:52.145Z,96857.78
2023-02-08T11:17:25.828Z,96862.63
2023-02-08T11:19:52.825Z,96851.53
2023-02-08T11:22:21.114Z,96864.09
2023-02-08T11:25:22.478Z,96856.81
2023-02-08T11:27:49.215Z,96862.34
2023-02-08T11:30:15.974Z,96852.44
2023-02-08T11:32:45.437Z,96848.25
2023-02-08T11:35:22.360Z,96847.06
2023-02-08T11:37:54.362Z,96850.00
2023-02-08T11:40:35.813Z,96842.44
2023-02-08T11:43:03.751Z,96839.63
2023-02-08T11:45:32.975Z,96840.88
2023-02-08T11:48:01.767Z,96834.97
2023-02-08T11:50:31.254Z,96835.66
2023-02-08T11:53:03.411Z,96831.72
2023-02-08T11:55:33.214Z,96831.16
2023-02-08T11:58:11.632Z,96840.31
2023-02-08T12:00:40.194Z,96845.75
2023-02-08T12:03:24.752Z,96847.00
2023-02-08T12:06:16.031Z,96831.97
2023-02-08T12:09:11.903Z,96815.78
2023-02-08T12:11:50.064Z,96820.91
2023-02-08T12:14:25.622Z,96813.06
2023-02-08T12:17:06.778Z,96816.16
2023-02-08T12:19:52.006Z,96813.03
2023-02-08T12:22:29.764Z,96812.47
2023-02-08T12:25:23.973Z,96799.84
2023-02-08T12:28:02.415Z,96790.22
2023-02-08T12:31:09.379Z,96783.38
2023-02-08T12:33:36.847Z,96780.78
2023-02-08T12:36:21.430Z,96766.69
2023-02-08T12:39:21.190Z,96776.56
2023-02-08T12:42:08.503Z,96757.56
2023-02-08T12:44:58.517Z,96754.59
2023-02-08T12:48:03.065Z,96752.25
2023-02-08T12:51:07.951Z,96750.19
2023-02-08T12:53:41.307Z,96732.13
2023-02-08T12:56:18.727Z,96741.59
2023-02-08T12:58:47.893Z,96738.28
2023-02-08T13:01:22.431Z,96733.75
2023-02-08T13:03:55.335Z,96734.91
2023-02-08T13:06:25.296Z,96721.84
2023-02-08T13:09:01.683Z,96714.38
2023-02-08T13:11:59.616Z,96716.03
2023-02-08T13:14:32.990Z,96711.75
2023-02-08T13:17:31.775Z,96721.63
2023-02-08T13:20:04.242Z,96718.13
2023-02-08T13:22:34.642Z,96732.41
2023-02-08T13:25:08.472Z,96721.50
2023-02-08T13:27:35.551Z,96721.25
2023-02-08T13:30:02.598Z,96708.00
2023-02-08T13:32:44.062Z,96703.78
2023-02-08T13:35:19.447Z,96708.50
2023-02-08T13:38:13.321Z,96702.13
2023-02-08T13:40:40.107Z,96697.06
2023-02-08T13:43:34.087Z,96701.53
2023-02-08T13:46:02.516Z,96685.72
2023-02-08T13:48:51.461Z,96692.13
2023-02-08T13:51:33.243Z,96692.56
2023-02-08T13:54:00.191Z,96694.63
2023-02-08T13:56:35.656Z,96706.22
2023-02-08T13:59:02.279Z,96700.19
2023-02-08T14:01:34.401Z,96697.84
2023-02-08T14:04:06.984Z,96696.19
2023-02-08T14:06:48.989Z,96697.03
2023-02-08T14:09:15.472Z,96709.28
2023-02-08T14:12:00.640Z,96705.38
2023-02-08T14:14:30.952Z,96716.13
2023-02-08T14:17:19.981Z,96711.91
2023-02-08T14:19:57.673Z,96727.09
2023-02-08T14:22:26.348Z,96725.81
2023-02-08T14:25:06.373Z,96719.94
2023-02-08T14:27:39.964Z,96728.69
2023-02-08T14:30:20.275Z,96725.22
2023-02-08T14:32:53.222Z,96708.19
2023-02-08T14:35:26.328Z,96703.38
2023-02-08T14:38:24.088Z,96713.28
2023-02-08T14:40:59.253Z,96706.28
2023-02-08T14:43:38.864Z,96704.84
2023-02-08T14:46:40.147Z,96692.28
2023-02-08T14:49:12.668Z,96685.84
2023-02-08T14:51:45.106Z,96691.91
2023-02-08T14:58:42.918Z,96699.75
2023-02-08T15:01:18.485Z,96701.56
2023-02-08T15:03:47.180Z,96698.50
2023-02-08T15:06:39.622Z,96708.38
2023-02-08T15:09:12.861Z,96706.59
2023-02-08T15:11:40.740Z,96708.13
2023-02-08T15:14:14.109Z,96714.22
2023-02-08T15:16:43.599Z,96704.97
2023-02-08T15:19:20.980Z,96706.09
2023-02-08T15:21:47.579Z,96700.91
2023-02-08T15:24:19.627Z,96702.91
2023-02-08T15:26:52.041Z,96717.56
2023-02-08T15:29:42.963Z,96725.59
2023-02-08T15:32:17.719Z,96720.19
2023-02-08T15:34:46.617Z,96732.75
2023-02-08T15:37:17.007Z,96738.16
2023-02-08T15:39:43.705Z,96735.09
2023-02-08T15:42:18.545Z,96727.81
2023-02-08T15:44:46.004Z,96728.69
2023-02-08T15:47:36.108Z,96726.03
2023-02-08T15:50:06.448Z,96728.06
2023-02-08T15:52:36.039Z,96726.13
2023-02-08T15:55:06.342Z,96719.72
2023-02-08T15:57:38.757Z,96714.88
2023-02-08T16:00:13.003Z,96711.78
2023-02-08T16:02:40.617Z,96724.34
2023-02-08T16:05:24.293Z,96724.19
2023-02-08T16:07:51.838Z,96719.28
2023-02-08T16:10:40.625Z,96729.88
2023-02-08T16:13:24.856Z,96729.47
2023-02-08T16:16:13.614Z,96733.72
2023-02-08T16:18:45.815Z,96728.06
2023-02-08T16:21:21.206Z,96726.22
2023-02-08T16:23:52.073Z,96717.41
2023-02-08T16:26:26.481Z,96726.50
2023-02-08T16:29:18.094Z,96724.69
2023-02-08T16:31:55.568Z,96723.69
2023-02-08T16:34:24.927Z,96727.13
2023-02-08T16:36:52.534Z,96726.97
2023-02-08T16:39:19.032Z,96727.13
2023-02-08T16:42:13.935Z,96737.78
2023-02-08T16:45:17.034Z,96737.34
2023-02-08T16:47:52.863Z,96746.19
2023-02-08T16:50:27.704Z,96740.56
2023-02-08T16:52:58.928Z,96737.94
2023-02-08T16:55:28.564Z,96743.53
2023-02-08T16:57:57.110Z,96742.22
2023-02-08T17:00:23.686Z,96747.97
2023-02-08T17:02:51.014Z,96740.75
2023-02-08T17:05:19.563Z,96743.34
2023-02-08T17:07:46.230Z,96743.84
2023-02-08T17:10:42.957Z,96742.69
2023-02-08T17:13:20.446Z,96749.22
2023-02-08T17:15:50.521Z,96754.78
2023-02-08T17:18:17.812Z,96749.47
2023-02-08T17:20:44.729Z,96753.69
2023-02-08T17:23:11.757Z,96752.47
2023-02-08T17:25:38.990Z,96745.69
2023-02-08T17:28:08.248Z,96746.13
2023-02-08T17:30:37.795Z,96748.94
2023-02-08T17:33:06.538Z,96745.41
2023-02-08T17:35:34.341Z,96743.47
2023-02-08T17:38:01.769Z,96742.69
2023-02-08T17:40:32.694Z,96744.66
2023-02-08T17:43:04.585Z,96742.94
2023-02-08T17:45:31.860Z,96735.75
2023-02-08T17:48:01.247Z,96738.47
2023-02-08T17:50:27.910Z,96737.97
2023-02-08T17:52:55.658Z,96733.16
2023-02-08T17:55:22.991Z,96733.75
2023-02-08T17:57:49.624Z,96732.44
2023-02-08T18:00:19.420Z,96733.81
2023-02-08T18:02:48.670Z,96735.66
2023-02-08T18:05:21.846Z,96725.00
2023-02-08T18:07:49.582Z,96730.09
2023-02-08T18:10:16.411Z,96727.91
2023-02-08T18:12:43.273Z,96732.31
2023-02-08T18:15:12.647Z,96725.28
2023-02-08T18:17:40.242Z,96722.72
2023-02-08T18:20:08.691Z,96723.72
2023-02-08T18:22:36.551Z,96715.44
2023-02-08T18:25:03.474Z,96715.34
2023-02-08T18:27:30.534Z,96716.16
2023-02-08T18:29:57.079Z,96713.63
2023-02-08T18:32:24.068Z,96707.66
2023-02-08T18:34:50.636Z,96703.78
2023-02-08T18:37:17.264Z,96706.22
2023-02-08T18:39:43.903Z,96709.50
2023-02-08T18:42:11.708Z,96707.06
2023-02-08T18:44:38.738Z,96710.28
2023-02-08T18:47:07.434Z,96706.84
2023-02-08T18:49:40.306Z,96707.44
2023-02-08T18:52:11.710Z,96701.81
2023-02-08T18:54:39.504Z,96703.63
2023-02-08T18:57:09.305Z,96712.16
2023-02-08T18:59:36.298Z,96709.44
2023-02-08T19:02:02.970Z,96708.66
2023-02-08T19:04:29.765Z,96705.50
2023-02-08T19:06:56.272Z,96687.41
2023-02-08T19:09:22.804Z,96694.34
2023-02-08T19:11:49.453Z,96696.72
2023-02-08T19:14:16.031Z,96686.59
2023-02-08T19:16:46.113Z,96686.03
2023-02-08T19:19:13.376Z,96689.84
2023-02-08T19:21:39.987Z,96689.19
2023-02-08T19:24:06.973Z,96691.47
2023-02-08T19:26:41.482Z,96684.78
2023-02-08T19:29:13.407Z,96696.19
2023-02-08T19:31:41.058Z,96694.38
2023-02-08T19:34:10.533Z,96694.00
2023-02-08T19:36:41.422Z,96691.03
2023-02-08T19:39:08.315Z,96689.41
2023-02-08T19:41:37.617Z,96675.50
2023-02-08T19:44:06.413Z,96681.44
2023-02-08T19:46:35.120Z,96678.91
2023-02-08T19:49:02.188Z,96675.50
2023-02-08T19:51:32.569Z,96679.38
2023-02-08T19:54:00.784Z,96680.31
2023-02-08T19:56:31.101Z,96678.72
2023-02-08T19:58:57.702Z,96685.72
2023-02-08T20:01:24.296Z,96679.81
2023-02-08T20:03:53.389Z,96680.72
2023-02-08T20:06:25.489Z,96674.78
2023-02-08T20:08:52.330Z,96678.94
2023-02-08T20:11:21.548Z,96667.78
2023-02-08T20:13:49.108Z,96672.19
2023-02-08T20:16:16.560Z,96670.69
2023-02-08T20:18:43.062Z,96672.91
2023-02-08T20:21:10.199Z,96674.78
2023-02-08T20:23:37.434Z,96674.69
2023-02-08T20:26:09.903Z,96676.53
2023-02-08T20:28:38.333Z,96676.03
2023-02-08T20:31:10.779Z,96669.75
2023-02-08T20:33:37.409Z,96672.59
2023-02-08T20:36:10.268Z,96678.91
2023-02-08T20:38:38.210Z,96677.22
2023-02-08T20:41:07.108Z,96677.59
2023-02-08T20:43:34.935Z,96680.00
2023-02-08T20:46:05.864Z,96679.94
2023-02-08T20:48:32.773Z,96682.00
2023-02-08T20:51:10.963Z,96682.63
2023-02-08T20:53:38.999Z,96674.13
2023-02-08T20:56:12.068Z,96686.34
2023-02-08T20:58:39.062Z,96692.47
2023-02-08T21:01:15.749Z,96692.94
2023-02-08T21:03:42.922Z,96696.16
2023-02-08T21:06:16.744Z,96687.13
2023-02-08T21:08:44.002Z,96687.25
2023-02-08T21:11:12.041Z,96690.13
2023-02-08T21:13:38.800Z,96686.81
2023-02-08T21:16:09.203Z,96686.31
2023-02-08T21:18:36.673Z,96687.91
2023-02-08T21:21:04.786Z,96688.00
2023-02-08T21:23:31.886Z,96690.44
2023-02-08T21:25:59.802Z,96688.25
2023-02-08T21:28:26.698Z,96689.22
2023-02-08T21:30:59.013Z,96685.72
2023-02-08T21:33:26.060Z,96685.47
2023-02-08T21:35:52.576Z,96684.03
2023-02-08T21:38:19.512Z,96688.13
2023-02-08T21:40:46.418Z,96677.16
2023-02-08T21:43:13.804Z,96674.28
2023-02-08T21:45:40.386Z,96672.66
2023-02-08T21:48:07.100Z,96671.69
2023-02-08T21:50:52.395Z,96672.63
2023-02-08T21:53:37.486Z,96665.72
2023-02-08T21:56:04.276Z,96667.91
2023-02-08T21:58:30.858Z,96669.41
2023-02-08T22:00:57.505Z,96660.72
2023-02-08T22:03:24.214Z,96660.16
2023-02-08T22:05:50.806Z,96657.63
2023-02-08T22:08:17.361Z,96656.94
2023-02-08T22:10:53.400Z,96662.38
2023-02-08T22:13:24.263Z,96653.44
2023-02-08T22:15:50.876Z,96652.44
2023-02-08T22:18:17.443Z,96655.56
2023-02-08T22:20:45.008Z,96652.56
2023-02-08T22:23:11.769Z,96652.91
2023-02-08T22:25:38.913Z,96655.56
2023-02-08T22:28:06.449Z,96654.31
2023-02-08T22:30:33.055Z,96654.84
2023-02-08T22:32:59.599Z,96647.22
2023-02-08T22:35:26.192Z,96659.06
2023-02-08T22:37:52.779Z,96654.50
2023-02-08T22:40:20.145Z,96656.97
2023-02-08T22:42:46.764Z,96652.47
2023-02-08T22:45:13.356Z,96655.13
2023-02-08T22:47:39.927Z,96656.81
2023-02-08T22:50:06.955Z,96653.69
2023-02-08T22:52:34.515Z,96647.63
2023-02-08T22:55:03.842Z,96645.16
2023-02-08T22:57:35.081Z,96641.31
2023-02-08T23:00:02.565Z,96643.47
2023-02-08T23:02:29.309Z,96645.00
2023-02-08T23:04:55.966Z,96637.56
2023-02-08T23:07:22.521Z,96641.00
2023-02-08T23:09:49.072Z,96637.81
2023-02-08T23:12:15.640Z,96635.91
2023-02-08T23:14:42.227Z,96632.78
2023-02-08T23:17:08.765Z,96641.47
2023-02-08T23:19:35.338Z,96643.97
2023-02-08T23:22:01.868Z,96648.88
2023-02-08T23:24:28.487Z,96650.84
2023-02-08T23:26:55.052Z,96647.53
2023-02-08T23:29:21.598Z,96649.50
2023-02-08T23:31:48.278Z,96650.56
2023-02-08T23:34:14.920Z,96651.69
2023-02-08T23:36:41.756Z,96646.53
2023-02-08T23:39:08.404Z,96638.91
2023-02-08T23:41:34.982Z,96648.06
2023-02-08T23:44:02.002Z,96637.13
2023-02-08T23:46:29.761Z,96639.03
2023-02-08T23:48:56.394Z,96640.09
2023-02-08T23:51:25.013Z,96635.09
2023-02-08T23:53:53.207Z,96634.19
2023-02-08T23:56:21.339Z,96635.41
2023-02-08T23:58:49.892Z,96627.59
